DAUT 141300Z 00000KT CAVOK 24/03 Q1017 MRPV 141400Z 12010KT CAVOK 22/14 A3008 NOSIG KCOD 141356Z AUTO 05003KT 10SM OVC070 M08/M09 A2991 RMK AO2 SLP194 T10781094 FZRANO YMYB 141400
well.. setelah sekian lama terbang,, gw sadar klo terkadang gw menemukan singkatan pada METAR yang gw gak ketahui... jadi gw kali ini posting berbagai singkatan pada METAR, berikut ini sedikit diantaranya.. masih banyak lagi kombinasi singkatan yg lainnya.. namun semoga ini akan memberikan sedikit gambaran... *untuk lebih cepat mencari di postingan kali ini, silahkan menggunakan fitur ctrl+f ...
metar: tncm 012100z 10010kt 9999 few016tcu sct035 28/23 q1014 rera nosig rmk hz alqds/ shra se/ s/ w metar: krno 110355z 25003kt 7sm clr 22/01 a3016 rmk ao2 slp173 fu and hz alqds t02220011
2 days ago · metar. tgpy 311700z 03015kt 6000 -ra few016tcu bkn032 24/23 q1013 tempo shra tcu-nnw adj shra-alqds taf. tgpy 311000z 3112/0112 vrb02kt 9999 sct018 sct036 becmg 3123 ...
Bainbridge island wa map
Nosler 452 bullets

Baritone minecraft 1 12 2